createdAt,value
2023-03-04T00:01:37.226Z,-0.73
2023-03-04T00:04:08.509Z,-0.74
2023-03-04T00:09:21.049Z,-0.73
2023-03-04T00:11:51.678Z,-0.72
2023-03-04T00:14:21.089Z,-0.71
2023-03-04T00:16:50.441Z,-0.70
2023-03-04T00:19:22.104Z,-0.69
2023-03-04T00:21:50.843Z,-0.70
2023-03-04T00:24:18.512Z,-0.69
2023-03-04T00:26:47.871Z,-0.70
2023-03-04T00:29:15.442Z,-0.72
2023-03-04T00:31:42.834Z,-0.72
2023-03-04T00:34:09.987Z,-0.73
2023-03-04T00:36:42.915Z,-0.74
2023-03-04T00:39:12.273Z,-0.76
2023-03-04T00:41:42.312Z,-0.81
2023-03-04T00:44:18.850Z,-0.86
2023-03-04T00:46:48.258Z,-0.89
2023-03-04T00:49:16.500Z,-0.88
2023-03-04T00:51:44.276Z,-0.89
2023-03-04T00:54:12.359Z,-0.88
2023-03-04T00:56:40.765Z,-0.86
2023-03-04T00:59:08.289Z,-0.84
2023-03-04T01:01:36.752Z,-0.84
2023-03-04T01:04:04.657Z,-0.85
2023-03-04T01:06:32.790Z,-0.86
2023-03-04T01:09:00.908Z,-0.86
2023-03-04T01:11:28.224Z,-0.85
2023-03-04T01:13:56.521Z,-0.85
2023-03-04T01:16:24.650Z,-0.83
2023-03-04T01:19:50.071Z,-0.79
2023-03-04T01:22:19.299Z,-0.76
2023-03-04T01:24:49.123Z,-0.78
2023-03-04T01:27:18.397Z,-0.79
2023-03-04T01:29:48.023Z,-0.80
2023-03-04T01:32:16.697Z,-0.79
2023-03-04T01:34:45.048Z,-0.76
2023-03-04T01:37:14.206Z,-0.75
2023-03-04T01:39:41.782Z,-0.72
2023-03-04T01:42:28.449Z,-0.70
2023-03-04T01:44:55.522Z,-0.70
2023-03-04T01:47:26.370Z,-0.72
2023-03-04T01:49:55.681Z,-0.70
2023-03-04T01:52:26.265Z,-0.70
2023-03-04T01:54:54.068Z,-0.70
2023-03-04T01:57:23.330Z,-0.69
2023-03-04T02:00:09.708Z,-0.70
2023-03-04T02:02:41.752Z,-0.72
2023-03-04T02:05:10.290Z,-0.72
2023-03-04T02:07:38.188Z,-0.72
2023-03-04T02:10:06.300Z,-0.73
2023-03-04T02:12:35.576Z,-0.73
2023-03-04T02:15:03.827Z,-0.74
2023-03-04T02:17:33.062Z,-0.74
2023-03-04T02:20:13.101Z,-0.76
2023-03-04T02:22:43.942Z,-0.76
2023-03-04T02:25:14.352Z,-0.80
2023-03-04T02:27:42.206Z,-0.84
2023-03-04T02:30:11.506Z,-0.84
2023-03-04T02:32:39.399Z,-0.85
2023-03-04T02:35:07.583Z,-0.86
2023-03-04T02:37:34.871Z,-0.86
2023-03-04T02:40:02.738Z,-0.87
2023-03-04T02:42:29.756Z,-0.88
2023-03-04T02:45:00.995Z,-0.87
2023-03-04T02:47:30.063Z,-0.87
2023-03-04T02:49:59.925Z,-0.87
2023-03-04T02:52:27.804Z,-0.87
2023-03-04T02:54:55.853Z,-0.87
2023-03-04T02:57:23.644Z,-0.87
2023-03-04T02:59:55.008Z,-0.89
2023-03-04T03:02:28.292Z,-0.88
2023-03-04T03:04:55.850Z,-0.89
2023-03-04T03:07:23.570Z,-0.95
2023-03-04T03:09:50.948Z,-1.04
2023-03-04T03:12:19.302Z,-1.05
2023-03-04T03:14:47.477Z,-1.06
2023-03-04T03:17:18.502Z,-1.09
2023-03-04T03:19:47.567Z,-1.17
2023-03-04T03:22:15.727Z,-1.22
2023-03-04T03:24:43.757Z,-1.25
2023-03-04T03:27:11.658Z,-1.27
2023-03-04T03:29:40.748Z,-1.29
2023-03-04T03:32:08.963Z,-1.34
2023-03-04T03:34:36.346Z,-1.36
2023-03-04T03:37:03.996Z,-1.36
2023-03-04T03:39:31.674Z,-1.36
2023-03-04T03:42:00.367Z,-1.37
2023-03-04T03:44:28.859Z,-1.31
2023-03-04T03:46:56.237Z,-1.29
2023-03-04T03:49:23.516Z,-1.26
2023-03-04T03:51:50.620Z,-1.22
2023-03-04T03:54:17.943Z,-1.18
2023-03-04T03:56:45.748Z,-1.16
2023-03-04T03:59:13.257Z,-1.12
2023-03-04T04:01:40.414Z,-1.12
2023-03-04T04:04:07.809Z,-1.09
2023-03-04T04:06:35.274Z,-1.07
2023-03-04T04:09:03.339Z,-1.04
2023-03-04T04:11:30.895Z,-0.99
2023-03-04T04:13:58.627Z,-0.96
2023-03-04T04:16:26.579Z,-0.95
2023-03-04T04:18:54.510Z,-0.96
2023-03-04T04:21:22.568Z,-0.94
2023-03-04T04:23:50.466Z,-0.91
2023-03-04T04:26:18.314Z,-0.89
2023-03-04T04:28:45.596Z,-0.89
2023-03-04T04:31:13.167Z,-0.89
2023-03-04T04:33:41.140Z,-0.88
2023-03-04T04:36:11.064Z,-0.85
2023-03-04T04:38:38.820Z,-0.80
2023-03-04T04:41:06.097Z,-0.74
2023-03-04T04:43:33.657Z,-0.71
2023-03-04T04:46:01.123Z,-0.68
2023-03-04T04:48:28.444Z,-0.64
2023-03-04T04:50:56.758Z,-0.59
2023-03-04T04:53:24.387Z,-0.57
2023-03-04T04:55:51.790Z,-0.52
2023-03-04T04:58:19.746Z,-0.48
2023-03-04T05:00:47.300Z,-0.39
2023-03-04T05:03:18.291Z,-0.32
2023-03-04T05:05:47.424Z,-0.25
2023-03-04T05:08:14.985Z,-0.21
2023-03-04T05:10:42.536Z,-0.15
2023-03-04T05:13:09.990Z,-0.10
2023-03-04T05:15:37.979Z,-0.02
2023-03-04T05:18:05.652Z,0.07
2023-03-04T05:20:33.023Z,0.12
2023-03-04T05:23:00.267Z,0.17
2023-03-04T05:25:27.527Z,0.24
2023-03-04T05:27:54.746Z,0.32
2023-03-04T05:30:21.857Z,0.37
2023-03-04T05:32:48.769Z,0.41
2023-03-04T05:35:15.681Z,0.47
2023-03-04T05:37:42.688Z,0.57
2023-03-04T05:40:09.999Z,0.64
2023-03-04T05:42:39.050Z,0.64
2023-03-04T05:45:08.227Z,0.58
2023-03-04T05:47:37.173Z,0.54
2023-03-04T05:50:05.516Z,0.52
2023-03-04T05:52:32.964Z,0.56
2023-03-04T05:55:02.149Z,0.60
2023-03-04T05:57:32.423Z,0.66
2023-03-04T06:00:00.767Z,0.74
2023-03-04T06:02:29.131Z,0.82
2023-03-04T06:04:58.090Z,0.91
2023-03-04T06:07:24.873Z,0.99
2023-03-04T06:09:52.418Z,1.04
2023-03-04T06:12:19.449Z,1.09
2023-03-04T06:14:49.093Z,1.14
2023-03-04T06:17:16.587Z,1.26
2023-03-04T06:19:43.701Z,1.40
2023-03-04T06:22:11.080Z,1.56
2023-03-04T06:24:38.166Z,1.72
2023-03-04T06:27:05.848Z,1.87
2023-03-04T06:29:33.755Z,1.95
2023-03-04T06:32:00.714Z,2.00
2023-03-04T06:34:28.426Z,2.03
2023-03-04T06:36:55.484Z,2.00
2023-03-04T06:39:22.361Z,1.95
2023-03-04T06:41:49.249Z,1.95
2023-03-04T06:44:16.719Z,1.96
2023-03-04T06:46:43.816Z,2.01
2023-03-04T06:49:10.903Z,2.12
2023-03-04T06:51:37.827Z,2.25
2023-03-04T06:54:04.757Z,2.30
2023-03-04T06:56:31.606Z,2.34
2023-03-04T06:58:58.546Z,2.42
2023-03-04T07:01:26.632Z,2.54
2023-03-04T07:03:53.835Z,2.63
2023-03-04T07:06:22.739Z,2.70
2023-03-04T07:08:50.021Z,2.73
2023-03-04T07:11:18.607Z,2.74
2023-03-04T07:13:45.940Z,2.69
2023-03-04T07:16:13.764Z,2.63
2023-03-04T07:18:41.825Z,2.61
2023-03-04T07:21:08.782Z,2.58
2023-03-04T07:23:36.258Z,2.55
2023-03-04T07:26:03.495Z,2.64
2023-03-04T07:28:30.381Z,2.78
2023-03-04T07:30:57.222Z,2.91
2023-03-04T07:33:24.054Z,3.00
2023-03-04T07:35:59.085Z,3.08
2023-03-04T07:38:26.222Z,3.15
2023-03-04T07:40:59.660Z,3.17
2023-03-04T07:43:28.798Z,3.21
2023-03-04T07:45:59.545Z,3.21
2023-03-04T07:48:26.611Z,3.23
2023-03-04T07:51:11.100Z,3.21
2023-03-04T07:53:38.974Z,3.18
2023-03-04T07:56:06.670Z,3.18
2023-03-04T07:58:33.933Z,3.15
2023-03-04T08:01:03.141Z,3.07
2023-03-04T08:03:30.098Z,3.00
2023-03-04T08:05:57.086Z,2.97
2023-03-04T08:08:23.895Z,2.93
2023-03-04T08:10:50.762Z,2.93
2023-03-04T08:13:17.639Z,2.95
2023-03-04T08:15:44.439Z,2.99
2023-03-04T08:18:11.326Z,3.06
2023-03-04T08:20:41.275Z,3.13
2023-03-04T08:23:09.019Z,3.18
2023-03-04T08:25:39.077Z,3.17
2023-03-04T08:28:06.995Z,3.14
2023-03-04T08:30:37.204Z,3.08
2023-03-04T08:33:07.612Z,2.96
2023-03-04T08:35:39.925Z,2.89
2023-03-04T08:38:07.219Z,2.91
2023-03-04T08:40:34.068Z,2.99
2023-03-04T08:43:01.286Z,3.04
2023-03-04T08:45:28.377Z,3.09
2023-03-04T08:47:55.249Z,3.12
2023-03-04T08:50:22.618Z,3.17
2023-03-04T08:52:49.743Z,3.26
2023-03-04T08:55:16.761Z,3.39
2023-03-04T08:57:43.781Z,3.60
2023-03-04T09:00:11.222Z,3.83
2023-03-04T09:02:38.092Z,3.99
2023-03-04T09:05:05.624Z,4.14
2023-03-04T09:07:32.482Z,4.30
2023-03-04T09:09:59.620Z,4.38
2023-03-04T09:12:26.510Z,4.30
2023-03-04T09:15:09.800Z,4.17
2023-03-04T09:17:37.870Z,4.04
2023-03-04T09:20:08.809Z,3.91
2023-03-04T09:22:37.180Z,3.79
2023-03-04T09:25:04.326Z,3.63
2023-03-04T09:27:31.276Z,3.48
2023-03-04T09:29:58.212Z,3.42
2023-03-04T09:32:25.025Z,3.35
2023-03-04T09:34:51.893Z,3.33
2023-03-04T09:37:18.866Z,3.41
2023-03-04T09:39:46.000Z,3.65
2023-03-04T09:42:16.838Z,3.98
2023-03-04T09:44:45.991Z,4.35
2023-03-04T09:47:15.748Z,4.69
2023-03-04T09:49:51.037Z,4.92
2023-03-04T09:52:21.267Z,5.00
2023-03-04T09:54:54.112Z,5.06
2023-03-04T09:57:38.466Z,5.14
2023-03-04T10:00:23.598Z,5.18
2023-03-04T10:03:08.409Z,5.07
2023-03-04T10:06:02.975Z,4.91
2023-03-04T10:08:47.576Z,4.76
2023-03-04T10:11:16.779Z,4.66
2023-03-04T10:13:50.433Z,4.70
2023-03-04T10:16:19.864Z,4.81
2023-03-04T10:18:58.973Z,4.94
2023-03-04T10:21:33.878Z,5.05
2023-03-04T10:24:05.738Z,5.09
2023-03-04T10:26:33.624Z,5.14
2023-03-04T10:29:03.101Z,5.12
2023-03-04T10:31:39.060Z,5.04
2023-03-04T10:34:07.270Z,5.06
2023-03-04T10:36:44.328Z,5.15
2023-03-04T10:39:13.000Z,5.25
2023-03-04T10:41:45.653Z,5.32
2023-03-04T10:44:17.201Z,5.32
2023-03-04T10:46:45.359Z,5.30
2023-03-04T10:49:14.894Z,5.32
2023-03-04T10:51:43.473Z,5.29
2023-03-04T10:54:20.619Z,5.27
2023-03-04T10:56:55.756Z,5.22
2023-03-04T10:59:25.542Z,5.19
2023-03-04T11:02:01.828Z,5.12
2023-03-04T11:04:33.667Z,5.07
2023-03-04T11:07:00.777Z,5.04
2023-03-04T11:09:28.897Z,5.06
2023-03-04T11:11:59.311Z,5.02
2023-03-04T11:14:39.880Z,4.94
2023-03-04T11:17:17.841Z,4.78
2023-03-04T11:19:47.430Z,4.65
2023-03-04T11:22:18.526Z,4.55
2023-03-04T11:24:47.616Z,4.40
2023-03-04T11:27:33.188Z,4.26
2023-03-04T11:30:06.261Z,4.14
2023-03-04T11:32:41.622Z,4.07
2023-03-04T11:35:15.992Z,3.99
2023-03-04T11:37:42.926Z,3.90
2023-03-04T11:40:16.461Z,3.83
2023-03-04T11:42:49.455Z,3.72
2023-03-04T11:45:28.139Z,3.64
2023-03-04T11:48:01.862Z,3.61
2023-03-04T11:50:35.214Z,3.56
2023-03-04T11:53:09.182Z,3.38
2023-03-04T11:55:39.086Z,3.22
2023-03-04T11:58:12.387Z,3.08
2023-03-04T12:00:53.171Z,2.96
2023-03-04T12:03:39.293Z,2.90
2023-03-04T12:06:06.184Z,2.90
2023-03-04T12:08:45.105Z,2.94
2023-03-04T12:11:18.204Z,2.93
2023-03-04T12:13:51.200Z,2.92
2023-03-04T12:16:38.634Z,2.87
2023-03-04T12:19:20.542Z,2.82
2023-03-04T12:21:47.304Z,2.76
2023-03-04T12:24:14.105Z,2.74
2023-03-04T12:26:47.459Z,2.75
2023-03-04T12:29:33.108Z,2.79
2023-03-04T12:32:38.749Z,2.80
2023-03-04T12:35:16.240Z,2.70
2023-03-04T12:37:49.198Z,2.78
2023-03-04T12:40:22.082Z,2.79
2023-03-04T12:42:58.412Z,2.82
2023-03-04T12:45:48.342Z,2.84
2023-03-04T12:48:24.925Z,2.85
2023-03-04T12:51:07.266Z,2.80
2023-03-04T12:54:06.208Z,2.73
2023-03-04T12:56:47.160Z,2.69
2023-03-04T13:02:05.592Z,2.65
2023-03-04T13:04:51.693Z,2.64
2023-03-04T13:07:28.163Z,2.61
2023-03-04T13:10:15.253Z,2.58
2023-03-04T13:12:50.144Z,2.54
2023-03-04T13:15:21.696Z,2.54
2023-03-04T13:18:08.334Z,2.52
2023-03-04T13:20:37.870Z,2.53
2023-03-04T13:23:13.910Z,2.55
2023-03-04T13:25:45.426Z,2.56
2023-03-04T13:28:18.816Z,2.57
2023-03-04T13:30:57.284Z,2.55
2023-03-04T13:33:24.492Z,2.54
2023-03-04T13:35:51.715Z,2.51
2023-03-04T13:38:28.324Z,2.47
2023-03-04T13:41:14.262Z,2.45
2023-03-04T13:43:42.648Z,2.40
2023-03-04T13:46:19.012Z,2.36
2023-03-04T13:48:53.686Z,2.31
2023-03-04T13:51:31.296Z,2.26
2023-03-04T13:54:05.235Z,2.23
2023-03-04T13:56:41.929Z,2.19
2023-03-04T13:59:08.864Z,2.14
2023-03-04T14:01:41.854Z,2.12
2023-03-04T14:04:11.773Z,2.08
2023-03-04T14:06:44.225Z,2.03
2023-03-04T14:09:34.958Z,1.98
2023-03-04T14:12:04.295Z,1.95
2023-03-04T14:14:46.011Z,1.94
2023-03-04T14:17:31.380Z,1.92
2023-03-04T14:19:59.416Z,1.91
2023-03-04T14:22:41.987Z,1.87
2023-03-04T14:25:23.803Z,1.82
2023-03-04T14:27:51.834Z,1.81
2023-03-04T14:30:31.897Z,1.76
2023-03-04T14:33:07.769Z,1.72
2023-03-04T14:35:34.894Z,1.68
2023-03-04T14:38:05.146Z,1.60
2023-03-04T14:40:36.033Z,1.55
2023-03-04T14:43:10.897Z,1.54
2023-03-04T14:45:39.772Z,1.51
2023-03-04T14:48:07.016Z,1.51
2023-03-04T14:50:36.715Z,1.50
2023-03-04T14:53:13.349Z,1.49
2023-03-04T14:55:40.319Z,1.47
2023-03-04T14:58:15.930Z,1.44
2023-03-04T15:00:43.343Z,1.42
2023-03-04T15:03:22.590Z,1.40
2023-03-04T15:05:49.535Z,1.40
2023-03-04T15:08:25.131Z,1.39
2023-03-04T15:11:00.275Z,1.39
2023-03-04T15:13:41.147Z,1.37
2023-03-04T15:16:12.662Z,1.36
2023-03-04T15:18:40.253Z,1.37
2023-03-04T15:21:27.060Z,1.37
2023-03-04T15:23:56.544Z,1.37
2023-03-04T15:26:23.768Z,1.37
2023-03-04T15:28:50.606Z,1.40
2023-03-04T15:31:21.816Z,1.41
2023-03-04T15:33:48.904Z,1.42
2023-03-04T15:36:18.335Z,1.41
2023-03-04T15:38:49.288Z,1.42
2023-03-04T15:41:20.773Z,1.42
2023-03-04T15:43:47.708Z,1.42
2023-03-04T15:46:19.786Z,1.45
2023-03-04T15:48:47.229Z,1.46
2023-03-04T15:51:21.120Z,1.48
2023-03-04T15:53:54.467Z,1.50
2023-03-04T15:56:23.366Z,1.50
2023-03-04T15:58:54.633Z,1.49
2023-03-04T16:01:22.074Z,1.48
2023-03-04T16:03:51.629Z,1.48
2023-03-04T16:06:25.005Z,1.48
2023-03-04T16:08:52.540Z,1.49
2023-03-04T16:11:24.484Z,1.50
2023-03-04T16:13:56.336Z,1.50
2023-03-04T16:16:25.277Z,1.50
2023-03-04T16:18:54.575Z,1.48
2023-03-04T16:21:23.473Z,1.47
2023-03-04T16:23:51.597Z,1.45
2023-03-04T16:26:20.426Z,1.42
2023-03-04T16:28:48.071Z,1.44
2023-03-04T16:31:15.336Z,1.46
2023-03-04T16:33:45.754Z,1.46
2023-03-04T16:36:21.083Z,1.44
2023-03-04T16:38:48.884Z,1.42
2023-03-04T16:41:17.266Z,1.41
2023-03-04T16:43:46.588Z,1.37
2023-03-04T16:46:15.573Z,1.36
2023-03-04T16:48:42.916Z,1.36
2023-03-04T16:51:15.304Z,1.35
2023-03-04T16:53:50.224Z,1.34
2023-03-04T16:56:17.742Z,1.34
2023-03-04T16:58:45.737Z,1.32
2023-03-04T17:01:20.042Z,1.31
2023-03-04T17:03:47.697Z,1.32
2023-03-04T17:06:18.468Z,1.30
2023-03-04T17:08:52.435Z,1.29
2023-03-04T17:11:21.787Z,1.28
2023-03-04T17:13:49.527Z,1.25
2023-03-04T17:16:17.880Z,1.24
2023-03-04T17:18:47.751Z,1.23
2023-03-04T17:21:18.598Z,1.21
2023-03-04T17:23:45.740Z,1.16
2023-03-04T17:26:13.707Z,1.12
2023-03-04T17:28:40.867Z,1.09
2023-03-04T17:31:17.063Z,1.05
2023-03-04T17:33:46.707Z,1.00
2023-03-04T17:36:16.662Z,0.95
2023-03-04T17:38:44.308Z,0.89
2023-03-04T17:41:17.707Z,0.83
2023-03-04T17:43:49.531Z,0.77
2023-03-04T17:46:19.268Z,0.74
2023-03-04T17:48:46.533Z,0.71
2023-03-04T17:51:33.966Z,0.68
2023-03-04T17:54:04.627Z,0.66
2023-03-04T17:57:01.643Z,0.64
2023-03-04T17:59:29.919Z,0.62
2023-03-04T18:01:57.332Z,0.63
2023-03-04T18:04:24.627Z,0.60
2023-03-04T18:06:51.796Z,0.60
2023-03-04T18:09:19.868Z,0.63
2023-03-04T18:11:48.699Z,0.62
2023-03-04T18:14:16.158Z,0.63
2023-03-04T18:16:44.457Z,0.66
2023-03-04T18:19:12.200Z,0.67
2023-03-04T18:21:39.508Z,0.68
2023-03-04T18:24:10.105Z,0.69
2023-03-04T18:26:37.257Z,0.71
2023-03-04T18:29:06.151Z,0.73
2023-03-04T18:31:48.282Z,0.74
2023-03-04T18:34:15.706Z,0.72
2023-03-04T18:36:45.511Z,0.67
2023-03-04T18:39:15.144Z,0.64
2023-03-04T18:41:42.324Z,0.61
2023-03-04T18:44:11.703Z,0.54
2023-03-04T18:46:43.031Z,0.48
2023-03-04T18:49:10.688Z,0.45
2023-03-04T18:51:49.884Z,0.43
2023-03-04T18:54:17.110Z,0.42
2023-03-04T18:56:50.715Z,0.42
2023-03-04T18:59:23.375Z,0.44
2023-03-04T19:01:51.356Z,0.40
2023-03-04T19:04:22.854Z,0.37
2023-03-04T19:06:49.785Z,0.36
2023-03-04T19:09:16.628Z,0.34
2023-03-04T19:11:43.538Z,0.31
2023-03-04T19:14:11.829Z,0.26
2023-03-04T19:16:40.002Z,0.21
2023-03-04T19:19:07.355Z,0.19
2023-03-04T19:21:45.043Z,0.19
2023-03-04T19:24:12.188Z,0.17
2023-03-04T19:26:44.606Z,0.17
2023-03-04T19:29:11.807Z,0.18
2023-03-04T19:31:41.158Z,0.13
2023-03-04T19:34:12.829Z,0.09
2023-03-04T19:36:41.473Z,0.09
2023-03-04T19:39:09.469Z,0.07
2023-03-04T19:41:37.498Z,0.05
2023-03-04T19:44:05.249Z,0.06
2023-03-04T19:46:32.523Z,0.05
2023-03-04T19:49:01.712Z,0.03
2023-03-04T19:51:29.419Z,0.01
2023-03-04T19:53:56.590Z,-0.02
2023-03-04T19:56:23.999Z,-0.07
2023-03-04T19:58:53.688Z,-0.09
2023-03-04T20:01:28.530Z,-0.10
2023-03-04T20:03:57.080Z,-0.10
2023-03-04T20:06:24.381Z,-0.10
2023-03-04T20:08:51.547Z,-0.10
2023-03-04T20:11:18.656Z,-0.13
2023-03-04T20:13:47.353Z,-0.16
2023-03-04T20:16:15.156Z,-0.19
2023-03-04T20:18:42.840Z,-0.20
2023-03-04T20:21:10.232Z,-0.23
2023-03-04T20:23:37.320Z,-0.25
2023-03-04T20:26:04.617Z,-0.30
2023-03-04T20:28:31.824Z,-0.32
2023-03-04T20:31:11.797Z,-0.35
2023-03-04T20:33:39.097Z,-0.37
2023-03-04T20:36:06.045Z,-0.36
2023-03-04T20:38:33.207Z,-0.35
2023-03-04T20:41:00.115Z,-0.35
2023-03-04T20:43:28.911Z,-0.35
2023-03-04T20:45:55.924Z,-0.34
2023-03-04T20:48:22.951Z,-0.33
2023-03-04T20:50:49.968Z,-0.32
2023-03-04T20:53:19.494Z,-0.27
2023-03-04T20:55:46.444Z,-0.26
2023-03-04T20:58:13.327Z,-0.24
2023-03-04T21:00:40.681Z,-0.23
2023-03-04T21:03:07.551Z,-0.27
2023-03-04T21:05:34.390Z,-0.32
2023-03-04T21:08:01.295Z,-0.33
2023-03-04T21:10:28.305Z,-0.36
2023-03-04T21:12:55.152Z,-0.40
2023-03-04T21:15:22.885Z,-0.42
2023-03-04T21:17:49.935Z,-0.41
2023-03-04T21:20:16.801Z,-0.43
2023-03-04T21:22:43.828Z,-0.45
2023-03-04T21:25:10.982Z,-0.48
2023-03-04T21:27:42.770Z,-0.51
2023-03-04T21:30:11.475Z,-0.52
2023-03-04T21:32:39.424Z,-0.52
2023-03-04T21:35:06.592Z,-0.51
2023-03-04T21:37:33.616Z,-0.52
2023-03-04T21:40:02.432Z,-0.54
2023-03-04T21:42:29.998Z,-0.53
2023-03-04T21:44:57.538Z,-0.52
2023-03-04T21:47:24.382Z,-0.53
2023-03-04T21:49:57.068Z,-0.51
2023-03-04T21:52:24.215Z,-0.53
2023-03-04T21:54:51.114Z,-0.51
2023-03-04T21:57:18.753Z,-0.51
2023-03-04T21:59:45.878Z,-0.49
2023-03-04T22:02:16.938Z,-0.50
2023-03-04T22:04:44.082Z,-0.51
2023-03-04T22:07:11.095Z,-0.50
2023-03-04T22:09:38.342Z,-0.48
2023-03-04T22:12:05.413Z,-0.48
2023-03-04T22:14:32.995Z,-0.48
2023-03-04T22:16:59.942Z,-0.47
2023-03-04T22:19:30.113Z,-0.46
2023-03-04T22:21:57.088Z,-0.46
2023-03-04T22:24:24.047Z,-0.45
2023-03-04T22:26:50.824Z,-0.45
2023-03-04T22:29:17.711Z,-0.47
2023-03-04T22:31:45.351Z,-0.50
2023-03-04T22:34:13.413Z,-0.54
2023-03-04T22:36:41.434Z,-0.57
2023-03-04T22:39:09.667Z,-0.60
2023-03-04T22:41:37.329Z,-0.60
2023-03-04T22:44:06.328Z,-0.63
2023-03-04T22:46:34.383Z,-0.64
2023-03-04T22:49:04.891Z,-0.66
2023-03-04T22:51:32.142Z,-0.69
2023-03-04T22:53:59.040Z,-0.70
2023-03-04T22:56:26.134Z,-0.70
2023-03-04T22:58:53.059Z,-0.70
2023-03-04T23:01:20.153Z,-0.69
2023-03-04T23:03:48.311Z,-0.73
2023-03-04T23:06:22.936Z,-0.75
2023-03-04T23:08:51.834Z,-0.77
2023-03-04T23:11:21.202Z,-0.80
2023-03-04T23:13:48.675Z,-0.80
2023-03-04T23:16:15.730Z,-0.80
2023-03-04T23:18:43.743Z,-0.82
2023-03-04T23:21:17.072Z,-0.84
2023-03-04T23:23:43.901Z,-0.86
2023-03-04T23:26:22.387Z,-0.86
2023-03-04T23:28:49.475Z,-0.86
2023-03-04T23:31:16.629Z,-0.86
2023-03-04T23:33:46.043Z,-0.87
2023-03-04T23:36:15.293Z,-0.89
2023-03-04T23:38:43.195Z,-0.90
2023-03-04T23:41:20.603Z,-0.88
2023-03-04T23:43:49.524Z,-0.88
2023-03-04T23:46:16.442Z,-0.87
2023-03-04T23:48:46.465Z,-0.85
2023-03-04T23:51:15.008Z,-0.87
2023-03-04T23:53:42.354Z,-0.87
2023-03-04T23:56:17.257Z,-0.88
2023-03-04T23:58:44.874Z,-0.89
